• Join FlightAware (Why Join?)
  • Login
  • US Flag 
04:48PM EDT


 

Airport Tracker/Info


-or-


 

Live Flight TrackerFlight Track Log ✈ N805JL ✈ 28-Jun-2013 ✈ KVNY - MMPR / PVR

Flight Track Log - Related Links

Times and Time Zones

All times are in EDT time to prevent confusion due to time zone crossing. See the N805JL flight status page for this flight to view local times or setup timezone preferences in your user account.

Time Position Orientation Groundspeed Altitude Reporting Facility
EDT Latitude Longitude Course Direction KTS MPH feet Rate Location/Type
12:53PM 34.1833 -118.4833 48° Northeast 185 213 1,400  Level Southern California TRACON
12:54PM 34.1392 -118.4400 141° Southeast 221 254 2,700 900 Climbing Los Angeles Center
12:55PM 34.1775 -118.3872 49° Northeast 246 283 3,500 1,920 Climbing Los Angeles Center
12:56PM 34.2556 -118.4350 333° Northwest 262 302 6,700 2,700 Climbing Los Angeles Center
12:57PM 34.3269 -118.4731 336° Northwest 299 344 9,200 2,280 Climbing Los Angeles Center
12:59PM 34.5743 -118.1343 48° Northeast  Level FlightAware Approximate
12:59PM 34.3889 -118.4089 41° Northeast 300 345 11,500  Level Los Angeles Center
01:00PM 34.4417 -118.3561 40° Northeast 307 353 13,300 1,980 Climbing Los Angeles Center
01:01PM 34.5100 -118.2583 50° Northeast 319 367 15,700 2,040 Climbing Los Angeles Center
01:02PM 34.5231 -118.1606 81° East 315 362 17,600 1,920 Climbing Los Angeles Center
01:03PM 34.4386 -118.1075 153° Southeast 316 364 19,700 1,800 Climbing Los Angeles Center
01:04PM 34.3511 -118.0617 157° South 326 375 21,400 1,620 Climbing Los Angeles Center
01:05PM 34.2603 -118.0103 155° Southeast 336 387 23,100 1,560 Climbing Los Angeles Center
01:06PM 34.1719 -117.9606 155° Southeast 348 400 24,700 1,320 Climbing Los Angeles Center
01:07PM 34.0806 -117.9119 156° South 358 412 25,900 960 Climbing Los Angeles Center
01:08PM 34.0061 -117.8703 155° Southeast 365 420 26,700 1,140 Climbing Los Angeles Center
01:09PM 33.8914 -117.8103 157° South 373 429 28,300 1,200 Climbing Los Angeles Center
01:10PM 33.7753 -117.7475 156° South 381 438 29,300 840 Climbing Los Angeles Center
01:11PM 33.6767 -117.6936 156° South 387 445 30,100 780 Climbing Los Angeles Center
01:12PM 33.5808 -117.6300 151° Southeast 390 449 31,000 780 Climbing Los Angeles Center
01:13PM 33.4831 -117.5664 152° Southeast 397 457 31,800 720 Climbing Los Angeles Center
01:14PM 33.3856 -117.5031 152° Southeast 397 457 32,700 780 Climbing Los Angeles Center
01:15PM 33.2692 -117.4275 152° Southeast 397 457 33,700 960 Climbing Los Angeles Center
01:16PM 33.1544 -117.3525 151° Southeast 391 450 34,700 840 Climbing Los Angeles Center
01:17PM 33.0611 -117.2908 151° Southeast 387 445 35,500 720 Climbing Los Angeles Center
01:18PM 32.9686 -117.2306 151° Southeast 381 438 36,300 720 Climbing Los Angeles Center
01:19PM 32.8764 -117.1719 152° Southeast 377 434 37,100 240 Climbing Los Angeles Center
01:20PM 32.7833 -117.1122 152° Southeast 368 423 36,900 -240 Descending Los Angeles Center
01:21PM 32.7094 -117.0436 142° Southeast 352 405 36,600 -720 Descending Los Angeles Center
01:23PM 32.6686 -116.9397 115° Southeast 350 403 35,400 -1,380 Descending Los Angeles Center
01:24PM 32.6153 -116.8019 115° Southeast 388 447 33,800 -1,200 Descending Los Angeles Center
01:25PM 32.5650 -116.6781 116° Southeast 416 479 33,000 -60 Descending Los Angeles Center
01:26PM 32.5069 -116.5956 130° Southeast 410 472 33,700 660 Climbing Los Angeles Center
01:28PM 32.3600 -116.4317 137° Southeast  Level Estimated
01:35PM 31.8170 -115.8326 137° Southeast  Level Estimated
01:36PM 31.7392 -115.7476 137° Southeast  Level Estimated
01:37PM 31.6613 -115.6627 137° Southeast  Level Estimated
01:38PM 31.5834 -115.5780 137° Southeast  Level Estimated
01:39PM 31.5054 -115.4934 137° Southeast  Level Estimated
01:40PM 31.4274 -115.4090 137° Southeast  Level Estimated
01:41PM 31.3493 -115.3247 137° Southeast  Level Estimated
01:42PM 31.2712 -115.2405 137° Southeast  Level Estimated
01:43PM 31.1930 -115.1565 137° Southeast  Level Estimated
01:44PM 31.1147 -115.0726 137° Southeast  Level Estimated
01:45PM 31.0364 -114.9888 137° Southeast  Level Estimated
01:46PM 30.9581 -114.9052 138° Southeast  Level Estimated
01:47PM 30.8797 -114.8218 138° Southeast  Level Estimated
01:48PM 30.8012 -114.7384 138° Southeast  Level Estimated
01:49PM 30.7227 -114.6552 138° Southeast  Level Estimated
01:50PM 30.6441 -114.5722 138° Southeast  Level Estimated
01:51PM 30.5655 -114.4892 138° Southeast  Level Estimated
01:52PM 30.4868 -114.4064 138° Southeast  Level Estimated
01:53PM 30.4081 -114.3238 138° Southeast  Level Estimated
01:54PM 30.3293 -114.2413 138° Southeast  Level Estimated
01:55PM 30.2505 -114.1589 138° Southeast  Level Estimated
01:56PM 30.1716 -114.0766 138° Southeast  Level Estimated
01:57PM 30.0927 -113.9945 138° Southeast  Level Estimated
01:58PM 30.0137 -113.9125 138° Southeast  Level Estimated
01:59PM 29.9347 -113.8306 138° Southeast  Level Estimated
02:00PM 29.8556 -113.7489 138° Southeast  Level Estimated
02:01PM 29.7764 -113.6673 138° Southeast  Level Estimated
02:02PM 29.6972 -113.5858 138° Southeast  Level Estimated
02:03PM 29.6180 -113.5044 138° Southeast  Level Estimated
02:04PM 29.5387 -113.4232 138° Southeast  Level Estimated
02:05PM 29.4594 -113.3421 138° Southeast  Level Estimated
02:06PM 29.3800 -113.2611 138° Southeast  Level Estimated
02:07PM 29.3006 -113.1803 138° Southeast  Level Estimated
02:08PM 29.2211 -113.0996 138° Southeast  Level Estimated
02:09PM 29.1415 -113.0190 138° Southeast  Level Estimated
02:10PM 29.0620 -112.9385 139° Southeast  Level Estimated
02:11PM 28.9823 -112.8582 139° Southeast  Level Estimated
02:12PM 28.9027 -112.7780 139° Southeast  Level Estimated
02:13PM 28.8229 -112.6979 139° Southeast  Level Estimated
02:14PM 28.7432 -112.6179 139° Southeast  Level Estimated
02:15PM 28.6633 -112.5380 139° Southeast  Level Estimated
02:16PM 28.5835 -112.4583 139° Southeast  Level Estimated
02:17PM 28.5036 -112.3787 139° Southeast  Level Estimated
02:18PM 28.4236 -112.2992 139° Southeast  Level Estimated
02:19PM 28.3436 -112.2198 139° Southeast  Level Estimated
02:20PM 28.2636 -112.1406 139° Southeast  Level Estimated
02:21PM 28.1835 -112.0615 139° Southeast  Level Estimated
02:22PM 28.1033 -111.9825 139° Southeast  Level Estimated
02:23PM 28.0232 -111.9036 139° Southeast  Level Estimated
02:24PM 27.9429 -111.8248 139° Southeast  Level Estimated
02:25PM 27.8627 -111.7461 139° Southeast  Level Estimated
02:26PM 27.7823 -111.6676 139° Southeast  Level Estimated
02:27PM 27.7020 -111.5891 139° Southeast  Level Estimated
02:28PM 27.6216 -111.5108 139° Southeast  Level Estimated
02:29PM 27.5411 -111.4326 139° Southeast  Level Estimated
02:30PM 27.4606 -111.3546 139° Southeast  Level Estimated
02:31PM 27.3801 -111.2766 139° Southeast  Level Estimated
02:32PM 27.2995 -111.1987 139° Southeast  Level Estimated
02:33PM 27.2189 -111.1210 139° Southeast  Level Estimated
02:34PM 27.1382 -111.0434 139° Southeast  Level Estimated
02:35PM 27.0575 -110.9658 139° Southeast  Level Estimated
02:36PM 26.9768 -110.8884 139° Southeast  Level Estimated
02:37PM 26.8960 -110.8111 140° Southeast  Level Estimated
02:38PM 26.8151 -110.7339 140° Southeast  Level Estimated
02:39PM 26.7342 -110.6569 140° Southeast  Level Estimated
02:40PM 26.6533 -110.5799 140° Southeast  Level Estimated
02:41PM 26.5724 -110.5031 140° Southeast  Level Estimated
02:42PM 26.4914 -110.4263 140° Southeast  Level Estimated
02:43PM 26.4103 -110.3497 140° Southeast  Level Estimated
02:44PM 26.3293 -110.2731 140° Southeast  Level Estimated
02:45PM 26.2481 -110.1967 140° Southeast  Level Estimated
02:46PM 26.1670 -110.1204 140° Southeast  Level Estimated
02:47PM 26.0858 -110.0442 140° Southeast  Level Estimated
02:48PM 26.0045 -109.9681 140° Southeast  Level Estimated
02:49PM 25.9233 -109.8921 140° Southeast  Level Estimated
02:50PM 25.8419 -109.8162 140° Southeast  Level Estimated
02:51PM 25.7606 -109.7404 140° Southeast  Level Estimated
02:52PM 25.6792 -109.6647 140° Southeast  Level Estimated
02:53PM 25.5977 -109.5891 140° Southeast  Level Estimated
02:54PM 25.5163 -109.5136 140° Southeast  Level Estimated
02:55PM 25.4347 -109.4382 140° Southeast  Level Estimated
02:56PM 25.3532 -109.3630 140° Southeast  Level Estimated
02:57PM 25.2716 -109.2878 140° Southeast  Level Estimated
02:58PM 25.1899 -109.2127 140° Southeast  Level Estimated
02:59PM 25.1083 -109.1377 140° Southeast  Level Estimated
03:00PM 25.0266 -109.0629 140° Southeast  Level Estimated
03:01PM 24.9448 -108.9881 140° Southeast  Level Estimated
03:02PM 24.8630 -108.9134 140° Southeast  Level Estimated
03:03PM 24.7812 -108.8389 140° Southeast  Level Estimated
03:04PM 24.6994 -108.7644 140° Southeast  Level Estimated
03:05PM 24.6175 -108.6900 140° Southeast  Level Estimated
03:06PM 24.5355 -108.6157 140° Southeast  Level Estimated
03:07PM 24.4536 -108.5415 141° Southeast  Level Estimated
03:08PM 24.3716 -108.4674 141° Southeast  Level Estimated
03:09PM 24.2895 -108.3934 141° Southeast  Level Estimated
03:10PM 24.2074 -108.3195 141° Southeast  Level Estimated
03:11PM 24.1253 -108.2457 141° Southeast  Level Estimated
03:12PM 24.0432 -108.1720 141° Southeast  Level Estimated
03:13PM 23.9610 -108.0984 141° Southeast  Level Estimated
03:14PM 23.8788 -108.0249 141° Southeast  Level Estimated
03:15PM 23.7965 -107.9515 141° Southeast  Level Estimated
03:16PM 23.7142 -107.8781 141° Southeast  Level Estimated
03:17PM 23.6319 -107.8049 141° Southeast  Level Estimated
03:18PM 23.5496 -107.7318 141° Southeast  Level Estimated
03:19PM 23.4672 -107.6587 141° Southeast  Level Estimated
03:20PM 23.3848 -107.5857 141° Southeast  Level Estimated
03:21PM 23.3023 -107.5128 141° Southeast  Level Estimated
03:22PM 23.2198 -107.4401 141° Southeast  Level Estimated
03:23PM 23.1373 -107.3674 141° Southeast  Level Estimated
03:24PM 23.0547 -107.2947 141° Southeast  Level Estimated
03:25PM 22.9721 -107.2222 141° Southeast  Level Estimated
03:26PM 22.8895 -107.1498 141° Southeast  Level Estimated
03:27PM 22.8069 -107.0775 141° Southeast  Level Estimated
03:28PM 22.7242 -107.0052 141° Southeast  Level Estimated
03:29PM 22.6414 -106.9331 141° Southeast  Level Estimated
03:30PM 22.5587 -106.8610 141° Southeast  Level Estimated
03:31PM 22.4759 -106.7890 141° Southeast  Level Estimated
03:32PM 22.3931 -106.7171 141° Southeast  Level Estimated
03:33PM 22.3102 -106.6452 141° Southeast  Level Estimated
03:34PM 22.2274 -106.5735 141° Southeast  Level Estimated
03:35PM 22.1444 -106.5019 141° Southeast  Level Estimated
03:36PM 22.0615 -106.4303 141° Southeast  Level Estimated
03:37PM 21.9785 -106.3588 141° Southeast  Level Estimated
03:38PM 21.8955 -106.2874 141° Southeast  Level Estimated
03:39PM 21.8125 -106.2161 141° Southeast  Level Estimated
03:40PM 21.7294 -106.1449 141° Southeast  Level Estimated
03:41PM 21.6463 -106.0737 141° Southeast  Level Estimated
03:42PM 21.5632 -106.0027 142° Southeast  Level Estimated
03:43PM 21.4800 -105.9317 142° Southeast  Level Estimated
03:44PM 21.3968 -105.8608 142° Southeast  Level Estimated
03:45PM 21.3136 -105.7899 142° Southeast  Level Estimated
03:46PM 21.2304 -105.7192 142° Southeast  Level Estimated
03:47PM 21.1471 -105.6485 142° Southeast  Level Estimated
03:48PM 21.0638 -105.5779 142° Southeast  Level Estimated
03:49PM 20.9804 -105.5074 142° Southeast  Level Estimated
03:50PM 20.8971 -105.4370 142° Southeast  Level Estimated
03:51PM 20.8137 -105.3666 142° Southeast  Level Estimated
03:52PM 20.7302 -105.2964 142° Southeast  Level Estimated
03:53PM 20.6801 -105.2542 142° Southeast  Level Estimated
03:54PM 20.6801 -105.2542 43° Northeast  Level Estimated
03:55PM 20.6801 -105.2542 43° Northeast  Level Estimated
03:56PM 20.6801 -105.2542 43° Northeast  Level Estimated
03:57PM 20.6801 -105.2542 43° Northeast  Level Estimated
03:58PM 20.6801 -105.2542 43° Northeast  Level Estimated
03:59PM 20.6801 -105.2542 43° Northeast  Level Estimated
04:00PM 20.6801 -105.2542 43° Northeast  Level Estimated
04:01PM 20.6801 -105.2542 43° Northeast  Level Estimated
04:02PM 20.6801 -105.2542 43° Northeast  Level Estimated
04:03PM 20.6801 -105.2542 43° Northeast  Level Estimated
04:04PM 20.6801 -105.2542 43° Northeast  Level Estimated